Time;durP1;ratioP1;P1;durP2;ratioP2;P2;SDS_P1;SDS_P2;PMS_P1;PMS_P2;Temp;Humidity;BMP_temperature;BMP_pressure;BME280_temperature;BME280_humidity;BME280_pressure;Samples;Min_cycle;Max_cycle;Signal;HPM_P1;HPM_P2
2021/12/10 00:01:53;;;;;;;1.92;0.70;;;;;;;;;;20915597;28;20060;-59
2021/12/10 00:12:03;;;;;;;1.63;0.90;;;;;;;;;;20915670;28;20076;-67
2021/12/10 00:22:08;;;;;;;1.40;0.70;;;;;;;;;;20914752;28;20110;-59
2021/12/10 00:32:29;;;;;;;1.15;0.80;;;;;;;;;;20913546;28;20049;-61
2021/12/10 00:42:33;;;;;;;2.10;1.00;;;;;;;;;;20912476;28;20049;-58
2021/12/10 00:52:36;;;;;;;2.08;0.82;;;;;;;;;;20912672;28;20065;-62
2021/12/10 01:02:37;;;;;;;1.60;0.70;;;;;;;;;;20914194;28;20053;-58
2021/12/10 01:12:43;;;;;;;2.38;1.00;;;;;;;;;;20928821;28;20077;-60
2021/12/10 01:33:08;;;;;;;5.97;1.05;;;;;;;;;;20927881;28;20497;-58
2021/12/10 01:43:22;;;;;;;1.63;0.80;;;;;;;;;;20926232;28;20122;-64
2021/12/10 01:53:25;;;;;;;1.80;0.90;;;;;;;;;;20924818;28;20068;-60
2021/12/10 02:03:28;;;;;;;1.45;0.70;;;;;;;;;;20925314;28;20060;-64
2021/12/10 02:13:30;;;;;;;1.80;0.80;;;;;;;;;;20924240;28;20052;-63
2021/12/10 02:23:35;;;;;;;2.30;1.10;;;;;;;;;;20922235;28;20055;-59
2021/12/10 02:33:37;;;;;;;3.15;1.13;;;;;;;;;;20922442;28;20049;-60
2021/12/10 02:43:41;;;;;;;3.75;1.20;;;;;;;;;;20921710;28;20106;-60
2021/12/10 02:53:45;;;;;;;3.28;0.98;;;;;;;;;;20920064;28;20136;-60
2021/12/10 03:03:48;;;;;;;2.63;0.77;;;;;;;;;;20920025;28;20110;-60
2021/12/10 03:13:54;;;;;;;3.08;0.80;;;;;;;;;;20919593;28;20048;-65
2021/12/10 03:23:58;;;;;;;1.75;0.80;;;;;;;;;;20918358;28;20329;-67
2021/12/10 03:34:02;;;;;;;1.50;0.90;;;;;;;;;;20915845;28;20045;-59
2021/12/10 03:44:07;;;;;;;;;;;;;;;;;;20916989;28;20053;-59
2021/12/10 03:54:11;;;;;;;2.90;0.90;;;;;;;;;;20915585;28;19970;-64
2021/12/10 04:04:18;;;;;;;3.17;0.90;;;;;;;;;;20915265;28;20048;-58
2021/12/10 04:14:23;;;;;;;2.85;0.90;;;;;;;;;;20914954;28;20122;-61
2021/12/10 04:24:33;;;;;;;1.50;0.60;;;;;;;;;;20915195;28;20508;-59
2021/12/10 04:34:38;;;;;;;1.95;0.90;;;;;;;;;;20913484;28;20049;-60
2021/12/10 04:44:55;;;;;;;1.77;0.68;;;;;;;;;;20912885;28;20079;-67
2021/12/10 04:55:07;;;;;;;2.00;0.90;;;;;;;;;;20911493;28;20059;-65
2021/12/10 05:05:13;;;;;;;1.80;0.90;;;;;;;;;;20912094;28;20095;-67
2021/12/10 05:15:24;;;;;;;3.55;0.90;;;;;;;;;;20912540;28;20411;-67
2021/12/10 05:25:28;;;;;;;4.55;2.58;;;;;;;;;;20911717;28;20135;-67
2021/12/10 05:35:50;;;;;;;3.40;1.48;;;;;;;;;;20914010;28;20072;-67
2021/12/10 05:46:12;;;;;;;2.95;1.00;;;;;;;;;;20910682;28;20064;-69
2021/12/10 05:56:34;;;;;;;2.05;1.05;;;;;;;;;;20923426;28;20090;-64
2021/12/10 06:06:57;;;;;;;3.38;1.10;;;;;;;;;;20925236;28;20053;-67
2021/12/10 06:17:18;;;;;;;5.13;1.40;;;;;;;;;;20926384;28;20049;-68
2021/12/10 06:27:29;;;;;;;2.30;1.30;;;;;;;;;;20919555;28;20084;-68
2021/12/10 06:37:39;;;;;;;2.25;1.27;;;;;;;;;;20922294;28;20053;-66
2021/12/10 06:47:48;;;;;;;3.70;1.90;;;;;;;;;;20921390;28;20053;-67
2021/12/10 06:57:52;;;;;;;3.38;1.83;;;;;;;;;;20920501;28;20049;-69
2021/12/10 07:07:58;;;;;;;4.30;2.78;;;;;;;;;;20919158;28;20044;-69
2021/12/10 07:18:16;;;;;;;6.05;4.25;;;;;;;;;;20919370;28;20063;-65
2021/12/10 07:28:22;;;;;;;6.88;2.42;;;;;;;;;;20917508;28;20060;-66
2021/12/10 07:38:26;;;;;;;5.38;2.70;;;;;;;;;;20916573;28;20049;-66
2021/12/10 07:48:35;;;;;;;8.95;2.50;;;;;;;;;;20915866;28;20057;-67
2021/12/10 07:58:42;;;;;;;3.38;1.30;;;;;;;;;;20915551;28;20443;-58
2021/12/10 08:08:46;;;;;;;1.98;1.05;;;;;;;;;;20914281;28;20093;-57
2021/12/10 08:19:08;;;;;;;2.30;1.00;;;;;;;;;;20911981;28;20049;-60
2021/12/10 08:29:30;;;;;;;3.70;1.30;;;;;;;;;;20913696;28;20111;-59
2021/12/10 08:39:51;;;;;;;3.75;1.15;;;;;;;;;;20914496;28;20420;-58
2021/12/10 08:50:16;;;;;;;2.20;0.90;;;;;;;;;;20912334;28;20403;-66
2021/12/10 09:00:26;;;;;;;2.45;0.82;;;;;;;;;;20912590;28;20136;-62
2021/12/10 09:10:34;;;;;;;2.70;0.80;;;;;;;;;;20912407;28;20072;-58
2021/12/10 09:20:41;;;;;;;1.00;0.68;;;;;;;;;;20911636;28;20048;-58
2021/12/10 09:30:49;;;;;;;2.80;0.75;;;;;;;;;;20921343;28;20041;-58
2021/12/10 09:41:02;;;;;;;4.45;2.00;;;;;;;;;;20925438;28;20135;-63
2021/12/10 09:51:11;;;;;;;2.70;1.40;;;;;;;;;;20926036;28;20065;-62
2021/12/10 10:01:27;;;;;;;5.53;2.50;;;;;;;;;;20924820;28;20045;-67
2021/12/10 10:11:36;;;;;;;3.65;0.80;;;;;;;;;;20913190;28;20132;-57
2021/12/10 10:21:42;;;;;;;3.08;0.80;;;;;;;;;;20875350;28;20053;-67
2021/12/10 10:31:49;;;;;;;2.40;1.00;;;;;;;;;;20853061;28;20045;-75
2021/12/10 10:42:11;;;;;;;2.10;0.75;;;;;;;;;;20838627;28;20060;-63
2021/12/10 10:52:13;;;;;;;1.20;0.70;;;;;;;;;;20836732;28;20058;-57
2021/12/10 11:02:15;;;;;;;2.15;1.10;;;;;;;;;;20836968;28;20041;-54
2021/12/10 11:12:20;;;;;;;3.38;2.00;;;;;;;;;;20904454;28;20052;-52
2021/12/10 11:22:25;;;;;;;2.03;0.88;;;;;;;;;;20918131;28;20052;-58
2021/12/10 11:32:32;;;;;;;1.65;0.80;;;;;;;;;;20916328;28;20056;-58
2021/12/10 11:42:41;;;;;;;1.52;0.80;;;;;;;;;;20915308;28;20384;-54
2021/12/10 11:53:04;;;;;;;0.93;0.70;;;;;;;;;;20913837;28;20383;-55
2021/12/10 12:03:08;;;;;;;4.93;1.25;;;;;;;;;;20914779;28;20052;-61
2021/12/10 12:33:51;;;;;;;6.32;1.50;;;;;;;;;;20831696;28;20059;-59
2021/12/10 12:44:18;;;;;;;3.15;0.98;;;;;;;;;;20829922;28;20098;-56
2021/12/10 12:54:24;;;;;;;3.30;1.23;;;;;;;;;;20839584;28;20061;-72
2021/12/10 13:04:36;;;;;;;3.63;1.17;;;;;;;;;;20841771;28;20046;-69
2021/12/10 13:14:47;;;;;;;2.70;1.02;;;;;;;;;;20890894;28;20490;-66
2021/12/10 13:24:52;;;;;;;1.38;0.70;;;;;;;;;;20928282;28;20060;-67
2021/12/10 13:34:54;;;;;;;1.80;0.68;;;;;;;;;;20926750;28;20045;-68
2021/12/10 13:44:58;;;;;;;2.38;1.23;;;;;;;;;;20925907;28;20045;-66
2021/12/10 13:55:04;;;;;;;0.93;0.57;;;;;;;;;;20925462;28;20061;-61
2021/12/10 14:05:25;;;;;;;1.48;0.50;;;;;;;;;;20925015;28;20052;-60
2021/12/10 14:15:41;;;;;;;3.00;1.13;;;;;;;;;;20923581;28;20079;-67
2021/12/10 14:25:50;;;;;;;2.42;0.77;;;;;;;;;;20922179;28;20056;-60
2021/12/10 14:35:55;;;;;;;2.35;0.85;;;;;;;;;;20921787;28;20064;-62
2021/12/10 14:46:00;;;;;;;1.40;0.63;;;;;;;;;;20921922;28;20084;-62
2021/12/10 14:56:21;;;;;;;0.85;0.40;;;;;;;;;;20920531;28;20091;-62
2021/12/10 15:06:23;;;;;;;1.50;0.68;;;;;;;;;;20919867;28;20059;-60
2021/12/10 15:16:29;;;;;;;2.75;0.70;;;;;;;;;;20918854;28;20049;-60
2021/12/10 15:26:53;;;;;;;2.58;1.10;;;;;;;;;;20918222;28;20056;-61
2021/12/10 15:37:02;;;;;;;1.88;1.00;;;;;;;;;;20917875;28;20474;-63
2021/12/10 15:47:05;;;;;;;5.40;1.95;;;;;;;;;;20915235;28;20052;-60
2021/12/10 15:57:11;;;;;;;1.77;0.60;;;;;;;;;;20916251;28;20124;-63
2021/12/10 16:07:22;;;;;;;2.13;1.00;;;;;;;;;;20914610;28;20274;-61
2021/12/10 16:17:25;;;;;;;14.55;9.15;;;;;;;;;;20914189;28;20056;-60
2021/12/10 16:27:33;;;;;;;2.30;1.85;;;;;;;;;;20913489;28;20414;-56
2021/12/10 16:37:39;;;;;;;1.52;1.05;;;;;;;;;;20913466;28;20048;-65
2021/12/10 16:47:48;;;;;;;3.30;0.80;;;;;;;;;;20912403;28;20057;-61
2021/12/10 16:57:53;;;;;;;4.13;1.83;;;;;;;;;;20913328;28;20049;-59
2021/12/10 17:07:58;;;;;;;1.63;0.90;;;;;;;;;;20912758;28;20055;-62
2021/12/10 17:18:07;;;;;;;2.65;1.05;;;;;;;;;;20911953;28;20071;-56
2021/12/10 17:28:11;;;;;;;2.90;0.80;;;;;;;;;;20911614;28;20693;-60
2021/12/10 17:38:14;;;;;;;2.00;0.82;;;;;;;;;;20911486;28;20068;-59
2021/12/10 17:48:17;;;;;;;1.35;0.85;;;;;;;;;;20914367;28;20561;-61
2021/12/10 17:58:20;;;;;;;2.85;1.02;;;;;;;;;;20925394;28;20552;-60
2021/12/10 18:08:26;;;;;;;3.80;0.98;;;;;;;;;;20924360;28;20045;-56
2021/12/10 18:18:32;;;;;;;5.72;2.03;;;;;;;;;;20922054;28;20491;-55
2021/12/10 18:28:38;;;;;;;4.75;0.95;;;;;;;;;;20921967;28;20080;-53
2021/12/10 18:38:41;;;;;;;2.55;0.95;;;;;;;;;;20921220;28;20045;-58
2021/12/10 18:48:44;;;;;;;1.98;0.93;;;;;;;;;;20919589;28;20053;-61
2021/12/10 18:58:50;;;;;;;3.22;1.80;;;;;;;;;;20919819;28;20494;-60
2021/12/10 19:08:54;;;;;;;3.08;1.30;;;;;;;;;;20919746;28;20134;-55
2021/12/10 19:18:56;;;;;;;;;;;;;;;;;;20919003;28;20041;-57
2021/12/10 19:29:04;;;;;;;19.50;10.23;;;;;;;;;;20919541;28;19925;-55
2021/12/10 19:39:15;;;;;;;17.25;8.13;;;;;;;;;;20916757;28;20062;-56
2021/12/10 19:49:28;;;;;;;11.02;3.47;;;;;;;;;;20916273;28;20210;-59
2021/12/10 19:59:35;;;;;;;7.50;2.60;;;;;;;;;;20915649;28;20072;-56
2021/12/10 20:09:41;;;;;;;10.23;3.42;;;;;;;;;;20910282;28;20503;-59
2021/12/10 20:19:47;;;;;;;9.10;2.33;;;;;;;;;;20913998;28;20041;-63
2021/12/10 20:29:53;;;;;;;10.75;3.42;;;;;;;;;;20913726;28;20049;-56
2021/12/10 20:40:00;;;;;;;11.93;3.55;;;;;;;;;;20913357;28;20041;-56
2021/12/10 20:50:12;;;;;;;11.85;4.60;;;;;;;;;;20911271;28;20064;-57
2021/12/10 21:00:20;;;;;;;8.90;3.50;;;;;;;;;;20911065;28;20597;-57
2021/12/10 21:10:25;;;;;;;11.82;3.90;;;;;;;;;;20911794;28;20059;-59
2021/12/10 21:20:35;;;;;;;17.48;4.65;;;;;;;;;;20914086;28;20044;-57
2021/12/10 21:30:37;;;;;;;12.23;4.18;;;;;;;;;;20927864;28;20057;-56
2021/12/10 21:40:42;;;;;;;13.38;6.07;;;;;;;;;;20926889;28;20045;-56
2021/12/10 21:50:57;;;;;;;15.05;7.03;;;;;;;;;;20925852;28;20068;-59
2021/12/10 22:01:02;;;;;;;9.45;3.72;;;;;;;;;;20925396;28;20052;-62
2021/12/10 22:11:19;;;;;;;6.65;3.03;;;;;;;;;;20924948;28;20130;-61
2021/12/10 22:21:25;;;;;;;11.18;3.25;;;;;;;;;;20924368;28;20521;-55
2021/12/10 22:31:31;;;;;;;9.15;3.03;;;;;;;;;;20922370;28;20099;-55
2021/12/10 22:41:36;;;;;;;11.65;3.22;;;;;;;;;;20921643;28;20049;-56
2021/12/10 22:51:50;;;;;;;10.70;2.92;;;;;;;;;;20921564;28;20081;-56
2021/12/10 23:01:51;;;;;;;6.07;2.38;;;;;;;;;;20920997;28;20049;-57
2021/12/10 23:11:56;;;;;;;12.48;3.25;;;;;;;;;;20919224;28;20103;-57
2021/12/10 23:21:58;;;;;;;12.57;3.27;;;;;;;;;;20919367;28;20053;-57
2021/12/10 23:32:25;;;;;;;10.27;4.03;;;;;;;;;;20918560;28;20041;-57
2021/12/10 23:42:36;;;;;;;8.25;2.67;;;;;;;;;;20916637;28;20248;-60
2021/12/10 23:52:40;;;;;;;7.97;2.65;;;;;;;;;;20915025;28;20102;-60
